Airfield :
LOGIN :

Register | Disclaimer

   EN    FR    IT 

 










Legend :    VFR   Marginal VFR   IFR   Intensive IFR   Very Intensive IFR
Visi :
Ceiling :
>= 8 km
>= 3000ft
5 to 8 km
1000 to 3000 ft
1500m to 5 km
500 to 1000 ft
800 to 1500m
200 to 500 ft
< 800m
< 200 ft
Symbols :   Thunderstorms  Fog  Heavy snow  Heavy precipitations  Wind > 20 kt
SIGMETs :     Misc.  Thunderstorms  Icing  Turbulence  Mountain Waves  Volcanic Ashes







- Airport Elevation : 202 ft
- IATA code : LGW
- Download approach charts


EGKK - London Gatwick

CURRENT METAR :
  • 260850Z 24011KT 210V270 9999 SCT025 SCT038 10/05 Q1017

EXPIRED METARs :
  • 260820Z 24009KT 210V280 9999 BKN021 10/05 Q1017
  • 260750Z 25009KT 9999 SCT017 09/06 Q1017
  • 260720Z 23009KT 200V270 9999 FEW015 09/06 Q1017
  • 260650Z 23009KT 200V260 9999 FEW015 08/05 Q1017
  • 260620Z 23008KT 9999 FEW009 07/05 Q1016

TAF TAF EGKK
Valid from the 26 at 06:00 until the 27 at 12:00 UTC


260454Z 2606/2712 25010KT 9999 FEW040
PROB30
TEMPO 2612/2620 7000 SHRA
BECMG 2621/2624 19005KT
BECMG 2703/2706 13010KT
PROB40
TEMPO 2705/2712 6000 RA
No reported NOTAMs for that airfield.



MET'MAP, your aeronautical weather chart ! - Copyright ORBIFLY December 2007 - Disclaimer

ORBIFLY MET'MAP TEAM :

Programming & Development : Alexandra Zaïnal
Concept & Development : Baudouin d'Aumeries
Co-Development & Prog : Marc-Olivier Méhu
Technical & hardware support : Manuel Goepfert

Contact : metmap@orbifly.com




SOURCES & CREDITS :

   NOAA